createdAt,value
2023-05-05T00:01:48.405Z,2.00
2023-05-05T00:04:33.797Z,2.10
2023-05-05T00:07:18.703Z,2.47
2023-05-05T00:10:04.728Z,2.00
2023-05-05T00:12:50.056Z,2.25
2023-05-05T01:02:51.877Z,2.10
2023-05-05T01:05:42.380Z,1.80
2023-05-05T01:08:33.412Z,1.97
2023-05-05T01:11:35.559Z,1.90
2023-05-05T01:14:24.996Z,1.85
2023-05-05T01:48:29.840Z,1.80
2023-05-05T01:51:17.625Z,1.90
2023-05-05T01:54:04.386Z,2.40
2023-05-05T01:56:50.176Z,1.77
2023-05-05T01:59:36.379Z,2.00
2023-05-05T02:46:27.456Z,1.92
2023-05-05T02:49:12.760Z,1.70
2023-05-05T02:51:58.652Z,1.90
2023-05-05T02:54:47.520Z,1.93
2023-05-05T02:57:41.300Z,1.80
2023-05-05T03:46:11.974Z,1.88
2023-05-05T03:48:58.327Z,1.95
2023-05-05T03:51:45.581Z,1.90
2023-05-05T03:54:31.266Z,1.60
2023-05-05T03:57:16.659Z,1.63
2023-05-05T04:00:01.587Z,1.90
2023-05-05T04:47:15.622Z,2.85
2023-05-05T04:50:01.526Z,2.67
2023-05-05T04:52:46.860Z,2.83
2023-05-05T04:55:32.626Z,2.67
2023-05-05T04:58:17.492Z,2.75
2023-05-05T05:01:03.464Z,2.50
2023-05-05T05:03:48.844Z,2.92
2023-05-05T05:06:34.315Z,2.42
2023-05-05T05:09:19.460Z,2.50
2023-05-05T05:12:04.481Z,2.30
2023-05-05T05:14:49.717Z,2.13
2023-05-05T05:17:34.592Z,2.40
2023-05-05T05:20:20.152Z,2.33
2023-05-05T05:23:05.798Z,2.30
2023-05-05T05:25:54.821Z,2.38
2023-05-05T05:28:41.723Z,2.15
2023-05-05T05:31:27.317Z,2.10
2023-05-05T05:34:13.045Z,2.35
2023-05-05T05:36:59.081Z,2.20
2023-05-05T05:39:44.612Z,2.50
2023-05-05T05:42:30.542Z,2.33
2023-05-05T05:45:16.485Z,1.98
2023-05-05T05:48:02.244Z,2.30
2023-05-05T05:50:47.750Z,2.10
2023-05-05T05:53:33.054Z,2.10
2023-05-05T05:56:18.206Z,1.98
2023-05-05T05:59:04.702Z,2.30
2023-05-05T06:01:50.145Z,1.92
2023-05-05T06:04:35.769Z,2.00
2023-05-05T06:07:21.114Z,2.10
2023-05-05T06:10:22.731Z,1.92
2023-05-05T06:13:14.156Z,1.98
2023-05-05T06:16:03.411Z,2.30
2023-05-05T06:18:48.738Z,2.00
2023-05-05T06:21:34.090Z,2.20
2023-05-05T06:24:19.553Z,1.95
2023-05-05T06:27:05.538Z,2.05
2023-05-05T06:29:50.618Z,1.80
2023-05-05T06:32:35.798Z,2.13
2023-05-05T06:35:22.119Z,1.92
2023-05-05T06:38:07.571Z,1.95
2023-05-05T06:40:52.398Z,1.85
2023-05-05T06:43:37.806Z,1.95
2023-05-05T06:46:28.008Z,1.80
2023-05-05T06:49:13.310Z,1.83
2023-05-05T06:51:58.020Z,1.77
2023-05-05T06:54:43.382Z,2.15
2023-05-05T06:57:28.321Z,2.10
2023-05-05T07:00:14.889Z,2.00
2023-05-05T07:03:00.355Z,2.15
2023-05-05T07:05:45.329Z,1.80
2023-05-05T07:08:30.838Z,1.80
2023-05-05T07:11:15.630Z,2.13
2023-05-05T07:14:01.050Z,1.67
2023-05-05T07:16:46.405Z,1.80
2023-05-05T07:19:31.753Z,2.35
2023-05-05T07:22:16.948Z,2.13
2023-05-05T07:25:02.348Z,2.10
2023-05-05T07:27:47.252Z,2.17
2023-05-05T07:30:32.240Z,2.17
2023-05-05T07:33:18.494Z,1.90
2023-05-05T07:36:03.702Z,2.08
2023-05-05T07:38:48.792Z,2.42
2023-05-05T07:41:34.274Z,2.47
2023-05-05T07:44:19.558Z,2.20
2023-05-05T07:47:04.375Z,2.95
2023-05-05T07:49:49.340Z,3.53
2023-05-05T07:52:46.604Z,3.13
2023-05-05T07:55:34.813Z,3.13
2023-05-05T07:58:20.300Z,3.30
2023-05-05T08:01:06.617Z,3.17
2023-05-05T08:03:51.987Z,3.38
2023-05-05T08:06:37.407Z,3.88
2023-05-05T08:09:22.300Z,3.27
2023-05-05T08:12:07.224Z,3.63
2023-05-05T08:14:52.119Z,3.33
2023-05-05T08:17:44.068Z,3.25
2023-05-05T08:20:29.964Z,3.10
2023-05-05T08:23:15.350Z,3.43
2023-05-05T08:26:00.984Z,2.88
2023-05-05T08:28:47.608Z,3.00
2023-05-05T08:31:33.738Z,2.95
2023-05-05T08:34:18.885Z,3.00
2023-05-05T08:37:03.833Z,3.30
2023-05-05T08:39:49.270Z,3.00
2023-05-05T08:42:38.389Z,3.20
2023-05-05T08:45:24.540Z,2.72
2023-05-05T08:48:10.177Z,2.83
2023-05-05T08:50:59.514Z,2.90
2023-05-05T08:53:57.537Z,2.72
2023-05-05T08:56:45.913Z,3.03
2023-05-05T08:59:32.838Z,2.70
2023-05-05T09:02:18.268Z,2.80
2023-05-05T09:05:05.391Z,2.67
2023-05-05T09:07:51.202Z,2.58
2023-05-05T09:10:36.828Z,2.80
2023-05-05T09:13:21.900Z,3.00
2023-05-05T09:16:07.340Z,3.13
2023-05-05T09:19:00.549Z,3.43
2023-05-05T09:21:49.420Z,3.00
2023-05-05T09:24:34.294Z,2.70
2023-05-05T09:27:23.353Z,3.10
2023-05-05T09:30:09.349Z,2.90
2023-05-05T09:32:55.308Z,2.80
2023-05-05T09:35:49.438Z,2.40
2023-05-05T09:38:35.339Z,3.03
2023-05-05T09:41:36.102Z,2.80
2023-05-05T09:44:34.999Z,2.80
2023-05-05T09:47:29.401Z,2.60
2023-05-05T09:50:17.080Z,2.80
2023-05-05T09:53:02.691Z,2.97
2023-05-05T09:55:55.055Z,2.45
2023-05-05T09:58:40.398Z,2.65
2023-05-05T10:01:26.046Z,2.50
2023-05-05T10:04:30.158Z,2.90
2023-05-05T10:07:22.946Z,2.50
2023-05-05T10:10:15.411Z,2.75
2023-05-05T10:13:00.585Z,2.85
2023-05-05T10:15:47.129Z,2.67
2023-05-05T10:18:32.574Z,2.72
2023-05-05T10:21:19.907Z,2.55
2023-05-05T10:24:15.031Z,2.60
2023-05-05T10:27:02.489Z,2.70
2023-05-05T10:29:59.789Z,2.83
2023-05-05T10:32:59.309Z,2.30
2023-05-05T10:35:51.603Z,2.83
2023-05-05T10:38:37.375Z,2.33
2023-05-05T10:41:22.738Z,2.47
2023-05-05T10:44:07.865Z,2.60
2023-05-05T10:46:53.215Z,2.30
2023-05-05T10:49:50.265Z,2.30
2023-05-05T10:52:35.015Z,2.25
2023-05-05T10:55:21.367Z,2.30
2023-05-05T10:58:06.726Z,2.40
2023-05-05T11:00:51.831Z,2.20
2023-05-05T11:03:37.006Z,2.50
2023-05-05T11:06:22.343Z,2.30
2023-05-05T11:09:25.991Z,2.30
2023-05-05T11:12:13.699Z,2.03
2023-05-05T11:15:17.558Z,2.20
2023-05-05T11:18:06.735Z,2.22
2023-05-05T11:20:59.008Z,2.15
2023-05-05T11:23:48.611Z,2.20
2023-05-05T11:26:51.208Z,2.10
2023-05-05T11:29:55.040Z,2.05
2023-05-05T11:32:39.937Z,2.30
2023-05-05T11:35:44.728Z,2.10
2023-05-05T11:38:36.169Z,2.30
2023-05-05T11:41:21.163Z,2.10
2023-05-05T11:44:09.511Z,1.85
2023-05-05T11:46:55.311Z,2.10
2023-05-05T11:49:40.177Z,2.40
2023-05-05T11:52:26.362Z,2.08
2023-05-05T11:55:11.611Z,2.20
2023-05-05T11:57:56.881Z,1.90
2023-05-05T12:00:41.771Z,2.08
2023-05-05T12:03:27.008Z,2.20
2023-05-05T12:06:12.864Z,1.90
2023-05-05T12:08:57.882Z,1.87
2023-05-05T12:11:48.809Z,1.80
2023-05-05T12:14:34.356Z,1.98
2023-05-05T12:17:23.219Z,1.80
2023-05-05T12:20:09.283Z,2.00
2023-05-05T12:22:59.176Z,1.93
2023-05-05T12:25:45.664Z,2.10
2023-05-05T12:28:42.415Z,2.00
2023-05-05T12:31:37.598Z,2.47
2023-05-05T12:34:23.589Z,1.90
2023-05-05T12:37:08.740Z,2.00
2023-05-05T12:39:55.009Z,2.00
2023-05-05T12:42:40.176Z,2.20
2023-05-05T12:45:25.289Z,1.95
2023-05-05T12:48:28.247Z,2.17
2023-05-05T12:51:20.736Z,1.80
2023-05-05T12:54:07.552Z,1.80
2023-05-05T12:56:52.380Z,1.98
2023-05-05T12:59:37.258Z,1.92
2023-05-05T13:02:33.430Z,2.10
2023-05-05T13:05:29.053Z,1.53
2023-05-05T13:08:14.107Z,2.00
2023-05-05T13:10:59.157Z,1.85
2023-05-05T13:13:44.528Z,1.98
2023-05-05T13:16:29.951Z,1.80
2023-05-05T13:19:15.324Z,1.80
2023-05-05T13:22:00.751Z,1.55
2023-05-05T13:24:51.611Z,1.83
2023-05-05T13:27:37.829Z,1.58
2023-05-05T13:30:23.015Z,1.73
2023-05-05T13:33:08.036Z,1.80
2023-05-05T13:35:53.435Z,1.80
2023-05-05T13:38:38.493Z,1.70
2023-05-05T13:41:23.708Z,1.70
2023-05-05T13:44:08.701Z,1.60
2023-05-05T13:46:54.265Z,1.70
2023-05-05T13:49:39.565Z,1.92
2023-05-05T13:52:24.373Z,1.85
2023-05-05T13:55:10.053Z,1.65
2023-05-05T13:57:55.613Z,1.80
2023-05-05T14:00:40.879Z,1.83
2023-05-05T14:03:26.034Z,1.65
2023-05-05T14:06:11.139Z,1.50
2023-05-05T14:08:56.305Z,1.70
2023-05-05T14:11:41.802Z,1.80
2023-05-05T14:14:26.923Z,1.70
2023-05-05T14:17:12.771Z,1.77
2023-05-05T14:19:57.995Z,1.85
2023-05-05T14:22:43.234Z,1.40
2023-05-05T14:25:28.598Z,1.83
2023-05-05T14:28:13.528Z,1.60
2023-05-05T14:30:58.953Z,1.50
2023-05-05T14:33:44.305Z,1.67
2023-05-05T14:36:29.813Z,1.60
2023-05-05T14:39:14.569Z,1.77
2023-05-05T14:41:59.449Z,1.60
2023-05-05T14:44:44.216Z,1.80
2023-05-05T14:47:29.533Z,1.77
2023-05-05T14:50:14.688Z,1.80
2023-05-05T14:52:59.616Z,1.88
2023-05-05T14:55:44.761Z,1.60
2023-05-05T14:58:29.471Z,1.73
2023-05-05T15:01:14.450Z,1.88
2023-05-05T15:03:59.846Z,1.80
2023-05-05T15:06:45.167Z,1.90
2023-05-05T15:09:30.572Z,1.83
2023-05-05T15:12:15.461Z,1.70
2023-05-05T15:15:00.441Z,1.83
2023-05-05T15:17:45.405Z,1.60
2023-05-05T15:20:30.938Z,1.77
2023-05-05T15:23:16.429Z,1.73
2023-05-05T15:26:01.757Z,1.85
2023-05-05T15:28:49.676Z,2.13
2023-05-05T15:31:35.253Z,2.00
2023-05-05T15:34:20.697Z,1.60
2023-05-05T15:37:05.689Z,1.57
2023-05-05T15:39:51.218Z,1.67
2023-05-05T15:42:36.732Z,1.85
2023-05-05T15:45:21.844Z,1.67
2023-05-05T15:48:07.953Z,1.83
2023-05-05T15:50:53.426Z,2.03
2023-05-05T15:53:38.374Z,1.60
2023-05-05T15:56:23.704Z,1.63
2023-05-05T15:59:09.012Z,1.60
2023-05-05T16:01:54.157Z,1.65
2023-05-05T16:04:39.374Z,1.80
2023-05-05T16:07:25.206Z,1.50
2023-05-05T16:10:10.805Z,1.70
2023-05-05T16:12:56.820Z,1.42
2023-05-05T16:15:42.114Z,1.70
2023-05-05T16:18:27.032Z,1.60
2023-05-05T16:21:12.518Z,1.70
2023-05-05T16:23:57.591Z,1.65
2023-05-05T16:26:42.874Z,1.52
2023-05-05T16:29:27.810Z,1.70
2023-05-05T16:32:12.892Z,1.73
2023-05-05T16:34:58.136Z,1.88
2023-05-05T16:37:42.981Z,1.85
2023-05-05T16:40:27.920Z,1.58
2023-05-05T16:43:12.672Z,1.40
2023-05-05T16:45:57.605Z,1.80
2023-05-05T16:48:42.799Z,1.60
2023-05-05T16:51:28.934Z,1.40
2023-05-05T16:54:14.523Z,1.63
2023-05-05T16:57:00.428Z,1.60
2023-05-05T16:59:45.630Z,1.47
2023-05-05T17:02:30.967Z,1.85
2023-05-05T17:05:17.613Z,1.92
2023-05-05T17:08:03.824Z,1.50
2023-05-05T17:10:49.259Z,1.60
2023-05-05T17:13:34.210Z,1.30
2023-05-05T17:16:19.276Z,1.60
2023-05-05T17:19:04.745Z,1.60
2023-05-05T17:21:49.569Z,1.25
2023-05-05T17:24:34.491Z,1.40
2023-05-05T17:27:19.503Z,1.60
2023-05-05T17:30:05.395Z,1.58
2023-05-05T17:32:50.678Z,1.40
2023-05-05T17:35:36.154Z,1.67
2023-05-05T17:38:21.355Z,1.58
2023-05-05T17:41:06.435Z,1.70
2023-05-05T17:43:51.715Z,1.70
2023-05-05T17:46:37.335Z,1.70
2023-05-05T17:49:25.092Z,1.50
2023-05-05T17:52:10.602Z,1.80
2023-05-05T17:54:55.835Z,1.60
2023-05-05T17:57:40.649Z,1.50
2023-05-05T18:00:26.244Z,1.42
2023-05-05T18:03:11.597Z,1.70
2023-05-05T18:05:56.942Z,1.40
2023-05-05T18:08:42.337Z,1.60
2023-05-05T18:11:28.874Z,1.42
2023-05-05T18:14:14.347Z,1.80
2023-05-05T18:16:59.346Z,1.42
2023-05-05T18:19:46.633Z,1.83
2023-05-05T18:22:34.127Z,1.30
2023-05-05T18:25:19.197Z,1.50
2023-05-05T18:28:04.668Z,1.65
2023-05-05T18:30:49.621Z,1.70
2023-05-05T18:33:35.015Z,1.30
2023-05-05T18:36:19.843Z,1.60
2023-05-05T18:39:04.587Z,1.90
2023-05-05T18:41:49.576Z,1.60
2023-05-05T18:44:34.934Z,1.50
2023-05-05T18:47:20.497Z,1.42
2023-05-05T18:50:06.325Z,1.10
2023-05-05T18:52:51.212Z,1.30
2023-05-05T18:55:36.077Z,1.80
2023-05-05T18:58:21.350Z,1.52
2023-05-05T19:01:06.305Z,1.45
2023-05-05T19:03:51.729Z,1.30
2023-05-05T19:06:38.419Z,1.33
2023-05-05T19:09:23.690Z,1.60
2023-05-05T19:12:08.607Z,1.45
2023-05-05T19:14:53.528Z,1.40
2023-05-05T19:17:38.441Z,1.17
2023-05-05T19:20:34.841Z,1.33
2023-05-05T19:23:20.467Z,1.30
2023-05-05T19:26:05.944Z,1.45
2023-05-05T19:28:50.850Z,1.67
2023-05-05T19:31:35.828Z,1.40
2023-05-05T19:34:21.451Z,1.60
2023-05-05T19:37:06.518Z,1.23
2023-05-05T19:39:51.957Z,1.40
2023-05-05T19:42:37.354Z,1.13
2023-05-05T19:45:22.354Z,1.30
2023-05-05T19:48:07.251Z,1.13
2023-05-05T19:50:53.018Z,1.20
2023-05-05T19:53:40.077Z,1.60
2023-05-05T19:56:25.228Z,1.33
2023-05-05T19:59:10.742Z,1.80
2023-05-05T20:01:55.918Z,1.20
2023-05-05T20:04:41.169Z,1.10
2023-05-05T20:07:26.785Z,1.42
2023-05-05T20:10:13.356Z,1.35
2023-05-05T20:12:58.825Z,1.20
2023-05-05T20:15:43.798Z,1.15
2023-05-05T20:18:28.887Z,1.33
2023-05-05T20:21:15.512Z,1.33
2023-05-05T20:24:01.027Z,1.20
2023-05-05T20:26:46.085Z,1.43
2023-05-05T20:29:31.327Z,1.75
2023-05-05T20:32:17.486Z,1.70
2023-05-05T20:35:03.013Z,2.08
2023-05-05T20:37:48.701Z,2.50
2023-05-05T20:40:33.941Z,2.30
2023-05-05T20:43:19.453Z,2.55
2023-05-05T20:46:04.661Z,2.30
2023-05-05T20:48:49.674Z,2.22
2023-05-05T20:51:35.063Z,2.00
2023-05-05T20:54:20.534Z,2.60
2023-05-05T20:57:07.114Z,2.45
2023-05-05T20:59:52.420Z,2.50
2023-05-05T21:02:37.711Z,2.35
2023-05-05T21:05:23.331Z,2.30
2023-05-05T21:08:08.451Z,2.10
2023-05-05T21:10:53.627Z,2.08
2023-05-05T21:13:38.608Z,1.92
2023-05-05T21:16:24.396Z,1.90
2023-05-05T21:19:09.264Z,1.90
2023-05-05T21:21:58.968Z,2.17
2023-05-05T21:24:44.131Z,2.25
2023-05-05T21:27:29.522Z,2.10
2023-05-05T21:30:15.525Z,2.10
2023-05-05T21:33:01.287Z,2.13
2023-05-05T21:35:46.563Z,1.87
2023-05-05T21:38:31.822Z,2.20
2023-05-05T21:41:17.033Z,2.55
2023-05-05T21:44:02.329Z,2.65
2023-05-05T21:46:47.542Z,2.83
2023-05-05T21:49:32.676Z,2.77
2023-05-05T21:52:17.914Z,2.78
2023-05-05T21:55:03.991Z,2.63
2023-05-05T21:57:49.562Z,2.30
2023-05-05T22:00:34.809Z,2.28
2023-05-05T22:03:19.779Z,2.30
2023-05-05T22:06:05.424Z,2.05
2023-05-05T22:08:50.813Z,2.25
2023-05-05T22:11:36.567Z,2.30
2023-05-05T22:14:21.543Z,2.67
2023-05-05T22:17:07.200Z,2.93
2023-05-05T22:19:52.939Z,2.72
2023-05-05T22:22:38.279Z,2.20
2023-05-05T22:25:23.873Z,2.40
2023-05-05T22:28:08.979Z,2.35
2023-05-05T22:30:54.293Z,2.30
2023-05-05T22:33:39.151Z,2.72
2023-05-05T22:36:24.106Z,2.42
2023-05-05T22:39:09.362Z,2.17
2023-05-05T22:41:54.754Z,2.30
2023-05-05T22:44:39.832Z,2.00
2023-05-05T22:47:25.413Z,2.15
2023-05-05T22:50:10.977Z,2.13
2023-05-05T22:52:56.595Z,2.30
2023-05-05T22:55:41.908Z,2.28
2023-05-05T22:58:27.041Z,2.30
2023-05-05T23:01:12.395Z,2.30
2023-05-05T23:03:57.552Z,2.20
2023-05-05T23:06:42.991Z,2.38
2023-05-05T23:09:28.007Z,2.33
2023-05-05T23:12:12.983Z,1.97
2023-05-05T23:14:58.232Z,1.92
2023-05-05T23:17:43.272Z,2.00
2023-05-05T23:20:28.186Z,2.35
2023-05-05T23:23:13.270Z,2.08
2023-05-05T23:25:58.527Z,2.20
2023-05-05T23:28:43.923Z,2.10
